Decoded Metar for KPLD ( in ) (IATA:) | Meteo·Mobile Aviation Weather
aviador You're here:

KPLD Decoded Metar

in
Report Time2019-02-23 00:15:00
UTC Time2019-02-23 00:23:03
Flight Rules vfr VFR
WindCalm
Visibility9999 m
Phenomena:N/A
Clouds:N/A
Expected CloudBase > 800 ft AGL from Temp-Dew spread
CeilingNone
Temp01°C
Dew Point-1°C (87% RH)
AAT-1.1°C
QNH1028 hPa
Raw Report
KPLD 230015Z AUTO 00000KT 7SM CLR 01/M01 A3035 RMK AO2=

Extra information for KPLD:More info

Social comments